Portada
METAR-TAF:

METAR-TAF

Aeroports :

Nizhnevartovsk, Rússia

latitud: 60-56N, longitud: 076-29E, altitud: 54 m

Observació

L'informe es va fer fa 44 minuts, a les 08:00 UTC
Vent 4 kt del Est/Nord-Est
Temperatura -9°C
Humitat 79%
Pressió 1013 hPa
Visibilitat 10 km o més
sense núvols per sota de 1500 mi sense presència de cumulonimbus.

METAR: USNN 120800Z 07002MPS CAVOK M09/M12 Q1013 R21/490539 NOSIG RMK QFE755

Hora: 13:44 (08:44 UTC)

Pronòstic

L'informe es va fer fa 44 minuts, a les 08:00 UTC
Pronòstic vàlid del 12 a les 09 UTC al 13 a les 09 UTC
Vent 6 kt del Est
Visibilitat 10 km o més
Cel ennuvolat a una alçada de 2000 ft
Evolucionant progressivament
l' 12 a les 12 UTC al 12 a les 13 UTC
Vent 6 kt del Nord
Temporalment
l' 12 a les 15 UTC al 12 a les 20 UTC
Visibilitat: 3100 m
Cel ennuvolat a una alçada de 400 ft
boirina

TAF: USNN 120800Z 1209/1309 09003MPS 9999 BKN020 BECMG 1212/1213 36003MPS TEMPO 1215/1220 3100 BR BKN004

Observacions i pronòstics meteorològics de més de 4000 aeroports (METAR i TAF).

Les estacions disponibles són els punts grocs i vermells al mapa.

Posi el ratolí al punt desitjat per veure el nom de l'estació.

Feu clic per veure les observacions i els pronòstics meteorològics.

Per canviar el mapa: feu clic els botons verds amb una creu de color negre per apropar; al botó verd amb un guió per allunyar la imatge; o en les fletxes verdes per a mapes adjacents.


METAR-TAF: